Time;durP1;ratioP1;P1;durP2;ratioP2;P2;SDS_P1;SDS_P2;PMS_P1;PMS_P2;Temp;Humidity;BMP_temperature;BMP_pressure;BME280_temperature;BME280_humidity;BME280_pressure;Samples;Min_cycle;Max_cycle;Signal;HPM_P1;HPM_P2
2022/11/16 00:01:34;;;;;;;2.80;1.40;;;10.30;99.90;;;;;;5094494;28;20977;-80
2022/11/16 00:04:03;;;;;;;1.93;1.60;;;10.30;99.90;;;;;;5088638;28;20617;-80
2022/11/16 00:06:30;;;;;;;1.70;1.40;;;10.20;99.90;;;;;;5088935;28;21202;-80
2022/11/16 00:11:43;;;;;;;1.67;1.57;;;10.20;99.90;;;;;;5087797;28;20612;-81
2022/11/16 00:14:11;;;;;;;2.77;2.10;;;10.20;99.90;;;;;;5090825;28;20613;-80
2022/11/16 00:16:39;;;;;;;2.63;2.40;;;10.20;99.90;;;;;;5107572;28;20627;-80
2022/11/16 00:19:07;;;;;;;1.97;1.80;;;10.20;99.90;;;;;;5107659;28;20635;-79
2022/11/16 00:21:34;;;;;;;1.90;1.30;;;10.30;99.90;;;;;;5107546;28;20631;-80
2022/11/16 00:24:01;;;;;;;2.73;2.53;;;10.20;99.90;;;;;;5103892;28;20609;-80
2022/11/16 00:26:28;;;;;;;3.37;2.70;;;10.20;99.90;;;;;;5107147;28;21077;-80
2022/11/16 00:28:55;;;;;;;1.90;1.80;;;10.20;99.90;;;;;;5106153;28;21199;-80
2022/11/16 00:31:24;;;;;;;4.43;2.10;;;10.20;99.90;;;;;;5106793;28;21244;-80
2022/11/16 00:33:52;;;;;;;2.70;2.50;;;10.20;99.90;;;;;;5100625;28;21260;-80
2022/11/16 00:36:18;;;;;;;3.70;2.20;;;10.20;99.90;;;;;;5091501;28;21204;-80
2022/11/16 00:38:45;;;;;;;2.90;2.47;;;10.20;99.90;;;;;;5086876;28;20628;-80
2022/11/16 00:41:12;;;;;;;3.80;2.27;;;10.30;99.90;;;;;;5100068;28;20616;-80
2022/11/16 00:43:39;;;;;;;2.33;2.13;;;10.20;99.90;;;;;;5107958;28;20622;-80
2022/11/16 00:46:06;;;;;;;3.73;3.27;;;10.20;99.90;;;;;;5091466;28;20655;-79
2022/11/16 00:48:34;;;;;;;2.60;2.37;;;10.20;99.90;;;;;;5086872;28;20625;-80
2022/11/16 00:51:01;;;;;;;1.90;1.80;;;10.10;99.90;;;;;;5090680;28;21395;-80
2022/11/16 00:53:28;;;;;;;2.00;1.83;;;10.10;99.90;;;;;;5088008;28;20612;-81
2022/11/16 00:55:55;;;;;;;2.70;2.43;;;10.10;99.90;;;;;;5108163;28;21220;-80
2022/11/16 00:58:21;;;;;;;1.80;1.70;;;10.10;99.90;;;;;;5106940;28;20628;-80
2022/11/16 01:00:48;;;;;;;4.00;1.60;;;10.10;99.90;;;;;;5109977;28;20726;-80
2022/11/16 01:03:15;;;;;;;2.73;1.53;;;10.10;99.90;;;;;;5096078;28;21223;-80
2022/11/16 01:05:43;;;;;;;2.73;2.23;;;10.10;99.90;;;;;;5106666;28;20633;-80
2022/11/16 01:08:10;;;;;;;3.80;3.40;;;10.10;99.90;;;;;;5107859;28;20623;-80
2022/11/16 01:10:39;;;;;;;4.47;2.97;;;10.10;99.90;;;;;;5106580;28;20790;-81
2022/11/16 01:13:05;;;;;;;3.87;2.77;;;10.10;99.90;;;;;;5111679;28;20967;-80
2022/11/16 01:15:32;;;;;;;2.47;1.60;;;10.10;99.90;;;;;;5098496;28;20620;-81
2022/11/16 01:17:59;;;;;;;2.10;1.90;;;10.10;99.90;;;;;;5106696;28;20626;-80
2022/11/16 01:20:28;;;;;;;1.57;1.43;;;10.00;99.90;;;;;;5096462;28;20620;-80
2022/11/16 01:22:57;;;;;;;2.97;2.80;;;10.00;99.90;;;;;;5090166;28;21182;-80
2022/11/16 01:25:24;;;;;;;1.63;1.53;;;10.00;99.90;;;;;;5105507;28;21223;-80
2022/11/16 01:27:50;;;;;;;2.40;2.20;;;10.10;99.90;;;;;;5108429;28;20628;-79
2022/11/16 01:30:18;;;;;;;1.83;1.73;;;10.00;99.90;;;;;;5106311;28;20652;-80
2022/11/16 01:32:44;;;;;;;3.20;1.67;;;10.10;99.90;;;;;;5103543;28;20655;-80
2022/11/16 01:35:16;;;;;;;2.93;2.73;;;10.00;99.90;;;;;;5102440;28;20624;-79
2022/11/16 01:37:43;;;;;;;1.50;1.40;;;10.00;99.90;;;;;;5096248;28;20623;-80
2022/11/16 01:40:13;;;;;;;3.20;2.40;;;10.00;99.90;;;;;;5091465;28;20642;-80
2022/11/16 01:42:41;;;;;;;2.30;1.67;;;10.00;99.90;;;;;;5109532;28;20620;-80
2022/11/16 01:45:21;;;;;;;2.13;1.40;;;9.90;99.90;;;;;;5108397;28;20620;-79
2022/11/16 01:47:48;;;;;;;3.03;1.73;;;10.10;99.90;;;;;;5104008;28;20710;-80
2022/11/16 01:50:17;;;;;;;1.40;1.30;;;9.90;99.90;;;;;;5106097;28;20663;-79
2022/11/16 01:52:51;;;;;;;1.50;1.40;;;9.90;99.90;;;;;;5090062;28;20620;-80
2022/11/16 01:55:20;;;;;;;2.40;2.03;;;9.90;99.90;;;;;;5096872;28;20620;-79
2022/11/16 01:57:48;;;;;;;1.70;1.60;;;9.90;99.90;;;;;;5109534;28;20630;-80
2022/11/16 02:00:17;;;;;;;3.60;2.40;;;9.90;99.90;;;;;;5105634;28;20623;-79
2022/11/16 02:02:43;;;;;;;1.37;1.27;;;9.90;99.90;;;;;;5109938;28;20627;-80
2022/11/16 02:05:11;;;;;;;1.80;1.37;;;9.90;99.90;;;;;;5099468;28;21251;-80
2022/11/16 02:11:07;;;;;;;2.23;2.03;;;9.90;99.90;;;;;;5090050;28;20655;-80
2022/11/16 02:13:45;;;;;;;1.60;1.50;;;9.90;99.90;;;;;;5089596;28;20616;-80
2022/11/16 02:16:22;;;;;;;2.30;2.10;;;9.80;99.90;;;;;;5105334;28;20937;-80
2022/11/16 02:19:00;;;;;;;2.03;1.93;;;9.90;99.90;;;;;;5092438;28;20702;-80
2022/11/16 02:21:36;;;;;;;1.87;1.73;;;9.90;99.90;;;;;;5095264;28;20766;-79
2022/11/16 02:24:41;;;;;;;1.50;1.40;;;9.90;99.90;;;;;;5089265;28;20703;-79
2022/11/16 02:27:39;;;;;;;2.00;1.80;;;9.80;99.90;;;;;;5059304;28;20724;-81
2022/11/16 02:30:08;;;;;;;4.90;2.60;;;9.80;99.90;;;;;;5045880;28;20700;-80
2022/11/16 02:32:39;;;;;;;3.70;1.40;;;9.80;99.90;;;;;;5083167;28;20624;-80
2022/11/16 02:35:12;;;;;;;1.33;1.20;;;9.80;99.90;;;;;;5096051;28;20655;-79
2022/11/16 02:37:45;;;;;;;2.10;2.00;;;9.60;99.90;;;;;;5088727;28;20666;-80
2022/11/16 02:40:16;;;;;;;1.40;1.13;;;9.70;99.90;;;;;;5102240;28;20673;-80
2022/11/16 02:42:47;;;;;;;2.10;1.90;;;9.60;99.90;;;;;;5094012;28;21272;-80
2022/11/16 02:45:20;;;;;;;2.47;2.27;;;9.70;99.90;;;;;;5096481;28;20600;-80
2022/11/16 02:47:49;;;;;;;1.90;1.80;;;9.70;99.90;;;;;;5105197;28;20620;-80
2022/11/16 02:50:20;;;;;;;1.23;1.10;;;9.70;99.90;;;;;;5104281;28;20658;-81
2022/11/16 02:52:47;;;;;;;1.47;1.37;;;9.70;99.90;;;;;;5091953;28;20964;-81
2022/11/16 02:55:14;;;;;;;1.87;1.20;;;9.80;99.90;;;;;;5104668;28;21335;-81
2022/11/16 02:57:48;;;;;;;1.57;1.47;;;9.80;99.90;;;;;;5088417;28;20601;-81
2022/11/16 03:00:22;;;;;;;2.30;1.20;;;9.80;99.90;;;;;;5101414;28;20619;-81
2022/11/16 03:03:06;;;;;;;1.43;1.10;;;9.90;99.90;;;;;;5090241;28;21233;-81
2022/11/16 03:05:38;;;;;;;1.93;1.73;;;9.90;99.90;;;;;;5100782;28;20629;-81
2022/11/16 03:08:11;;;;;;;1.10;1.10;;;9.90;99.90;;;;;;5103383;28;20634;-81
2022/11/16 03:13:30;;;;;;;1.63;1.50;;;9.80;99.90;;;;;;5104472;28;20630;-80
2022/11/16 03:16:01;;;;;;;1.10;1.00;;;9.90;99.90;;;;;;5101944;28;20622;-80
2022/11/16 03:18:28;;;;;;;1.13;1.03;;;9.90;99.90;;;;;;5087997;28;20609;-80
2022/11/16 03:21:06;;;;;;;1.73;1.60;;;9.90;99.90;;;;;;5101503;28;20611;-81
2022/11/16 03:23:33;;;;;;;3.43;2.37;;;9.90;99.90;;;;;;5087855;28;20707;-81
2022/11/16 03:26:06;;;;;;;0.90;0.90;;;9.90;99.90;;;;;;5089425;28;20678;-81
2022/11/16 03:28:38;;;;;;;1.07;1.07;;;9.90;99.90;;;;;;5088121;28;20604;-82
2022/11/16 03:31:13;;;;;;;1.73;1.63;;;9.90;99.90;;;;;;5100238;28;20681;-82
2022/11/16 03:33:45;;;;;;;2.70;1.50;;;9.90;99.90;;;;;;5094669;28;21084;-81
2022/11/16 03:36:17;;;;;;;2.43;1.20;;;9.80;99.90;;;;;;5100178;28;21133;-81
2022/11/16 03:38:49;;;;;;;1.17;1.13;;;9.90;99.90;;;;;;5088045;28;21197;-82
2022/11/16 03:41:18;;;;;;;1.00;1.00;;;10.00;99.90;;;;;;5096890;28;20623;-81
2022/11/16 03:43:46;;;;;;;0.80;0.80;;;10.00;99.90;;;;;;5108392;28;20652;-81
2022/11/16 03:46:17;;;;;;;2.10;1.43;;;10.00;99.90;;;;;;5088908;28;20620;-81
2022/11/16 03:48:44;;;;;;;1.43;1.00;;;9.90;99.90;;;;;;5088842;28;20711;-82
2022/11/16 03:51:12;;;;;;;1.67;1.37;;;10.00;99.90;;;;;;5095738;28;21335;-81
2022/11/16 03:53:39;;;;;;;1.87;1.70;;;10.00;99.90;;;;;;5088205;28;20647;-82
2022/11/16 03:56:06;;;;;;;0.90;0.90;;;10.00;99.90;;;;;;5101866;28;21247;-81
2022/11/16 03:58:33;;;;;;;1.40;1.30;;;10.00;99.90;;;;;;5105033;28;21598;-82
2022/11/16 04:01:02;;;;;;;0.90;0.90;;;10.00;99.90;;;;;;5106774;28;20624;-81
2022/11/16 04:03:30;;;;;;;4.13;1.27;;;10.00;99.90;;;;;;5095411;28;20627;-81
2022/11/16 04:25:20;;;;;;;1.83;0.83;;;9.90;99.90;;;;;;5103824;28;20627;-81
2022/11/16 04:37:47;;;;;;;2.80;1.13;;;9.80;99.90;;;;;;5088533;28;20663;-82
2022/11/16 04:38:53;;;;;;;2.73;2.53;;;9.60;99.90;;;;;;5104743;28;20627;-81
2022/11/16 04:44:04;;;;;;;2.50;1.70;;;9.80;99.90;;;;;;5101563;28;20727;-81
2022/11/16 04:49:14;;;;;;;2.00;1.60;;;9.80;99.90;;;;;;5100158;28;21216;-81
2022/11/16 04:51:43;;;;;;;1.83;1.50;;;9.90;99.90;;;;;;5106822;28;20663;-81
2022/11/16 04:54:09;;;;;;;1.30;1.20;;;9.90;99.90;;;;;;5095901;28;20635;-81
2022/11/16 04:56:36;;;;;;;2.80;1.10;;;9.90;99.90;;;;;;5097446;28;20615;-81
2022/11/16 04:59:03;;;;;;;2.13;0.80;;;10.00;99.90;;;;;;5104304;28;20708;-81
2022/11/16 05:04:11;;;;;;;0.70;0.70;;;10.00;99.90;;;;;;5088371;28;20634;-81
2022/11/16 05:06:38;;;;;;;2.33;1.50;;;10.00;99.90;;;;;;5098634;28;20723;-81
2022/11/16 05:09:06;;;;;;;1.47;1.10;;;10.00;99.90;;;;;;5105202;28;20632;-81
2022/11/16 05:11:33;;;;;;;1.23;1.07;;;10.00;99.90;;;;;;5092914;28;20715;-82
2022/11/16 05:14:00;;;;;;;5.13;1.20;;;10.00;99.90;;;;;;5088456;28;20613;-81
2022/11/16 05:16:27;;;;;;;1.17;0.97;;;10.00;99.90;;;;;;5097083;28;20973;-81
2022/11/16 05:21:35;;;;;;;0.90;0.73;;;10.00;99.90;;;;;;5096632;27;20723;-81
2022/11/16 05:26:47;;;;;;;2.07;1.40;;;10.10;99.90;;;;;;5096865;28;20617;-82
2022/11/16 05:29:14;;;;;;;1.03;0.93;;;10.00;99.90;;;;;;5100971;28;20631;-81
2022/11/16 05:31:41;;;;;;;2.87;2.27;;;10.10;99.90;;;;;;5092599;28;20774;-81
2022/11/16 05:34:08;;;;;;;1.70;0.90;;;10.10;99.90;;;;;;5095331;28;21190;-81
2022/11/16 05:36:35;;;;;;;1.00;0.90;;;10.00;99.90;;;;;;5089143;28;20621;-81
2022/11/16 05:39:02;;;;;;;1.37;1.27;;;10.00;99.90;;;;;;5096847;28;21540;-81
2022/11/16 05:41:29;;;;;;;1.53;1.43;;;10.10;99.90;;;;;;5090171;28;20685;-81
2022/11/16 05:43:57;;;;;;;2.30;1.10;;;10.10;99.90;;;;;;5093827;28;20619;-80
2022/11/16 05:46:25;;;;;;;1.10;1.10;;;10.10;99.90;;;;;;5101331;28;20624;-81
2022/11/16 05:48:51;;;;;;;1.10;0.97;;;10.00;99.90;;;;;;5099438;28;20620;-81
2022/11/16 05:51:18;;;;;;;1.13;1.03;;;10.00;99.90;;;;;;5110315;28;20658;-81
2022/11/16 05:53:48;;;;;;;1.20;1.13;;;10.00;99.90;;;;;;5108682;27;20766;-82
2022/11/16 05:56:15;;;;;;;1.20;1.00;;;10.00;99.90;;;;;;5099310;28;21061;-81
2022/11/16 05:58:42;;;;;;;1.53;1.20;;;10.00;99.90;;;;;;5090647;28;20648;-81
2022/11/16 06:01:10;;;;;;;1.20;1.07;;;9.90;99.90;;;;;;5095832;28;21101;-80
2022/11/16 06:03:38;;;;;;;1.70;1.50;;;9.90;99.90;;;;;;5091517;28;20709;-80
2022/11/16 06:06:05;;;;;;;1.50;1.30;;;9.80;99.90;;;;;;5088910;28;20616;-81
2022/11/16 06:08:32;;;;;;;1.40;0.90;;;9.80;99.90;;;;;;5095654;28;20634;-81
2022/11/16 06:11:01;;;;;;;1.40;1.30;;;9.80;99.90;;;;;;5102463;28;20782;-81
2022/11/16 06:13:28;;;;;;;0.80;0.80;;;9.80;99.90;;;;;;5110071;28;20608;-80
2022/11/16 06:15:55;;;;;;;1.07;0.97;;;9.80;99.90;;;;;;5110485;28;21079;-81
2022/11/16 06:18:23;;;;;;;1.87;1.30;;;9.80;99.90;;;;;;5109321;28;20966;-81
2022/11/16 06:20:50;;;;;;;2.10;1.60;;;9.80;99.90;;;;;;5107805;28;20620;-80
2022/11/16 06:23:17;;;;;;;1.97;1.70;;;9.80;99.90;;;;;;5110294;28;20619;-80
2022/11/16 06:25:44;;;;;;;1.40;1.30;;;9.80;99.90;;;;;;5110147;28;21224;-80
2022/11/16 06:28:11;;;;;;;1.83;1.67;;;9.80;99.90;;;;;;5109641;28;20754;-80
2022/11/16 06:30:40;;;;;;;1.50;1.40;;;9.80;99.90;;;;;;5109379;28;21220;-80
2022/11/16 06:33:06;;;;;;;1.30;1.23;;;9.80;99.90;;;;;;5109222;28;21218;-81
2022/11/16 06:35:35;;;;;;;1.43;1.20;;;9.80;99.90;;;;;;5109764;28;20615;-80
2022/11/16 06:38:01;;;;;;;2.73;1.60;;;9.90;99.90;;;;;;5109516;28;20612;-80
2022/11/16 06:40:28;;;;;;;1.60;1.50;;;9.90;99.90;;;;;;5109140;28;20616;-80
2022/11/16 06:42:56;;;;;;;1.50;1.40;;;9.90;99.90;;;;;;5109945;28;20716;-80
2022/11/16 06:45:23;;;;;;;1.47;1.37;;;9.90;99.90;;;;;;5109621;28;20627;-80
2022/11/16 06:47:50;;;;;;;1.70;1.60;;;9.90;99.90;;;;;;5108291;28;21433;-80
2022/11/16 06:50:18;;;;;;;2.00;1.80;;;9.90;99.90;;;;;;5109184;28;20626;-80
2022/11/16 06:52:47;;;;;;;1.60;1.50;;;9.80;99.90;;;;;;5109303;28;20663;-80
2022/11/16 06:55:15;;;;;;;1.60;1.50;;;9.90;99.90;;;;;;5109368;28;20620;-80
2022/11/16 06:57:42;;;;;;;2.37;2.13;;;9.90;99.90;;;;;;5108951;28;20695;-80
2022/11/16 07:00:11;;;;;;;1.60;1.50;;;9.90;99.90;;;;;;5107636;28;20743;-80
2022/11/16 07:02:38;;;;;;;1.47;1.37;;;9.90;99.90;;;;;;5109132;28;20731;-80
2022/11/16 07:05:06;;;;;;;1.50;1.40;;;9.90;99.90;;;;;;5109441;28;20712;-80
2022/11/16 07:07:33;;;;;;;2.00;1.87;;;10.00;99.90;;;;;;5108681;28;20657;-80
2022/11/16 07:10:02;;;;;;;0.80;0.80;;;10.00;99.90;;;;;;5108671;28;20983;-80
2022/11/16 07:12:28;;;;;;;1.40;1.30;;;10.00;99.90;;;;;;5108563;28;20669;-80
2022/11/16 07:14:55;;;;;;;1.13;0.83;;;10.00;99.90;;;;;;5108224;28;20624;-80
2022/11/16 07:17:22;;;;;;;2.00;1.87;;;10.00;99.90;;;;;;5108420;28;20672;-80
2022/11/16 07:19:49;;;;;;;1.03;0.93;;;9.90;99.90;;;;;;5106525;28;21177;-79
2022/11/16 07:22:16;;;;;;;1.87;1.77;;;10.00;99.90;;;;;;5109229;28;20998;-80
2022/11/16 07:24:42;;;;;;;1.00;1.00;;;10.00;99.90;;;;;;5108394;28;20631;-80
2022/11/16 07:27:11;;;;;;;0.90;0.70;;;10.00;99.90;;;;;;5107747;28;20643;-81
2022/11/16 07:29:37;;;;;;;1.23;1.13;;;10.00;99.90;;;;;;5108491;28;20704;-80
2022/11/16 07:32:04;;;;;;;1.13;0.70;;;10.00;99.90;;;;;;5108890;28;20691;-79
2022/11/16 07:34:31;;;;;;;3.37;1.30;;;10.00;99.90;;;;;;5108588;28;21203;-83
2022/11/16 07:36:58;;;;;;;0.50;0.50;;;10.00;99.90;;;;;;5108229;28;20730;-79
2022/11/16 07:39:25;;;;;;;0.50;0.50;;;9.90;99.90;;;;;;5107968;28;20731;-81
2022/11/16 07:41:53;;;;;;;0.53;0.30;;;9.90;99.90;;;;;;5108089;28;21174;-82
2022/11/16 07:44:21;;;;;;;0.30;0.20;;;10.00;99.90;;;;;;5108398;28;21228;-81
2022/11/16 07:46:48;;;;;;;0.87;0.83;;;9.90;99.90;;;;;;5108277;28;20640;-80
2022/11/16 07:49:17;;;;;;;0.60;0.50;;;9.90;99.90;;;;;;5108069;28;20711;-81
2022/11/16 07:51:44;;;;;;;0.57;0.50;;;9.90;99.90;;;;;;5108550;28;20750;-80
2022/11/16 07:54:12;;;;;;;0.53;0.53;;;10.00;99.90;;;;;;5108609;28;20726;-80
2022/11/16 07:56:38;;;;;;;0.70;0.50;;;9.90;99.90;;;;;;5107493;28;20630;-80
2022/11/16 07:59:05;;;;;;;0.40;0.30;;;10.00;99.90;;;;;;5106977;28;20734;-81
2022/11/16 08:01:34;;;;;;;0.50;0.50;;;10.00;99.90;;;;;;5108428;28;20604;-81
2022/11/16 08:04:01;;;;;;;0.70;0.47;;;10.00;99.90;;;;;;5107861;28;20668;-80
2022/11/16 08:06:30;;;;;;;0.40;0.30;;;10.00;99.90;;;;;;5107773;28;20699;-80
2022/11/16 08:08:57;;;;;;;0.50;0.50;;;10.00;99.90;;;;;;5107862;28;20740;-81
2022/11/16 08:11:24;;;;;;;0.60;0.57;;;10.10;99.90;;;;;;5107074;28;21114;-81
2022/11/16 08:13:51;;;;;;;1.13;0.53;;;10.20;99.90;;;;;;5108324;28;20711;-80
2022/11/16 08:16:20;;;;;;;0.43;0.43;;;10.10;99.90;;;;;;5107696;28;20731;-81
2022/11/16 08:18:48;;;;;;;0.50;0.50;;;10.20;99.90;;;;;;5108226;28;20622;-80
2022/11/16 08:21:17;;;;;;;1.50;0.50;;;10.20;99.90;;;;;;5106291;28;20659;-80
2022/11/16 08:23:44;;;;;;;1.43;0.80;;;10.40;99.90;;;;;;5107377;28;20813;-80
2022/11/16 08:26:14;;;;;;;0.70;0.60;;;10.30;99.90;;;;;;5107657;28;20711;-80
2022/11/16 08:28:42;;;;;;;0.40;0.33;;;10.40;99.90;;;;;;5108428;28;21041;-81
2022/11/16 08:31:10;;;;;;;0.57;0.57;;;10.30;99.90;;;;;;5107363;28;20655;-80
2022/11/16 08:33:37;;;;;;;0.40;0.30;;;10.40;99.90;;;;;;5107729;28;20631;-81
2022/11/16 08:36:07;;;;;;;0.40;0.30;;;10.50;99.90;;;;;;5107007;28;20632;-81
2022/11/16 08:38:34;;;;;;;1.03;0.60;;;10.50;99.90;;;;;;5107544;28;20617;-81
2022/11/16 08:41:01;;;;;;;0.83;0.40;;;10.50;99.90;;;;;;5106581;28;20726;-81
2022/11/16 08:43:29;;;;;;;0.53;0.33;;;10.60;99.90;;;;;;5107730;28;20616;-80
2022/11/16 08:45:58;;;;;;;0.60;0.50;;;10.60;99.90;;;;;;5108232;28;20615;-80
2022/11/16 08:48:25;;;;;;;0.40;0.30;;;10.50;99.90;;;;;;5107026;28;20623;-81
2022/11/16 08:50:52;;;;;;;0.60;0.43;;;10.60;99.90;;;;;;5107394;28;20626;-80
2022/11/16 08:53:20;;;;;;;1.10;0.70;;;10.60;99.90;;;;;;5107692;28;20671;-80
2022/11/16 08:55:46;;;;;;;0.30;0.20;;;10.50;99.90;;;;;;5107789;28;20747;-80
2022/11/16 08:58:13;;;;;;;0.83;0.70;;;10.60;99.90;;;;;;5106975;28;20722;-80
2022/11/16 09:00:40;;;;;;;0.40;0.20;;;10.70;99.90;;;;;;5107191;28;20638;-80
2022/11/16 09:03:07;;;;;;;0.77;0.70;;;10.70;99.90;;;;;;5106775;28;20996;-81
2022/11/16 09:05:34;;;;;;;0.70;0.70;;;10.70;99.90;;;;;;5107737;28;20622;-81
2022/11/16 09:08:00;;;;;;;1.47;1.30;;;10.60;99.90;;;;;;5107025;28;20616;-81
2022/11/16 09:10:29;;;;;;;3.80;1.50;;;10.70;99.90;;;;;;5107213;28;21042;-81
2022/11/16 09:12:55;;;;;;;3.03;1.00;;;10.70;99.90;;;;;;5107047;28;21264;-80
2022/11/16 09:15:22;;;;;;;0.87;0.67;;;10.70;99.90;;;;;;5109283;28;20670;-81
2022/11/16 09:17:53;;;;;;;0.40;0.33;;;10.70;99.90;;;;;;5110238;28;20714;-80
2022/11/16 09:20:20;;;;;;;0.30;0.30;;;10.70;99.90;;;;;;5110660;28;20746;-80
2022/11/16 09:22:47;;;;;;;0.57;0.57;;;10.80;99.90;;;;;;5111370;28;20625;-80
2022/11/16 09:25:14;;;;;;;0.97;0.50;;;11.00;99.90;;;;;;5111123;28;20730;-81
2022/11/16 09:27:43;;;;;;;1.33;1.10;;;11.10;99.90;;;;;;5110642;28;20624;-81
2022/11/16 09:30:10;;;;;;;1.13;0.70;;;11.10;99.90;;;;;;5110018;28;20669;-82
2022/11/16 09:32:37;;;;;;;4.73;0.80;;;11.10;99.90;;;;;;5111112;28;20669;-81
2022/11/16 09:35:05;;;;;;;1.17;1.07;;;11.00;99.90;;;;;;5111007;28;20659;-81
2022/11/16 09:37:31;;;;;;;0.60;0.60;;;10.80;99.90;;;;;;5110867;28;20705;-82
2022/11/16 09:39:58;;;;;;;0.77;0.77;;;10.80;99.90;;;;;;5110653;28;20754;-80
2022/11/16 09:42:37;;;;;;;0.70;0.60;;;10.90;99.90;;;;;;5110238;28;20711;-80
2022/11/16 09:45:12;;;;;;;4.60;0.77;;;11.00;99.90;;;;;;5110594;28;20651;-81
2022/11/16 09:47:47;;;;;;;1.60;0.70;;;11.20;99.90;;;;;;5110420;28;21214;-80
2022/11/16 09:50:30;;;;;;;1.30;0.93;;;11.20;99.90;;;;;;5110296;28;20622;-80
2022/11/16 09:53:01;;;;;;;1.07;0.80;;;11.30;99.90;;;;;;5110912;28;21058;-81
2022/11/16 09:55:34;;;;;;;1.60;1.50;;;11.30;99.90;;;;;;5110580;28;20993;-80
2022/11/16 09:58:08;;;;;;;0.77;0.60;;;11.30;99.90;;;;;;5110434;28;20677;-80
2022/11/16 10:00:37;;;;;;;0.70;0.70;;;11.30;99.90;;;;;;5110105;28;20705;-80
2022/11/16 10:03:06;;;;;;;0.83;0.83;;;11.40;99.90;;;;;;5110318;28;20612;-80
2022/11/16 10:05:40;;;;;;;1.20;1.17;;;11.40;99.90;;;;;;5110469;28;20700;-81
2022/11/16 10:08:16;;;;;;;0.57;0.57;;;11.40;99.90;;;;;;5110356;28;20647;-80
2022/11/16 10:10:53;;;;;;;3.60;1.20;;;11.50;99.90;;;;;;5111199;28;20625;-80
2022/11/16 10:13:29;;;;;;;0.40;0.30;;;11.50;99.90;;;;;;5109887;28;20755;-80
2022/11/16 10:16:06;;;;;;;0.50;0.50;;;11.50;99.90;;;;;;5110702;28;20611;-82
2022/11/16 10:18:47;;;;;;;0.40;0.40;;;11.50;99.90;;;;;;5090564;28;21197;-80
2022/11/16 10:21:28;;;;;;;5.10;1.57;;;11.60;99.90;;;;;;5110664;28;20661;-80
2022/11/16 10:24:23;;;;;;;0.70;0.70;;;11.80;99.90;;;;;;5110631;28;20627;-81
2022/11/16 10:27:02;;;;;;;0.40;0.37;;;11.80;99.90;;;;;;5109264;28;20625;-80
2022/11/16 10:29:42;;;;;;;0.40;0.40;;;11.90;99.90;;;;;;5110737;28;20655;-80
2022/11/16 10:32:20;;;;;;;0.80;0.40;;;11.90;99.90;;;;;;5110812;28;20746;-80
2022/11/16 10:34:52;;;;;;;0.30;0.30;;;11.80;99.90;;;;;;5109753;28;20627;-81
2022/11/16 10:37:19;;;;;;;0.70;0.67;;;11.70;99.90;;;;;;5109971;28;20722;-80
2022/11/16 10:39:48;;;;;;;0.57;0.57;;;11.80;99.90;;;;;;5110494;28;20619;-80
2022/11/16 10:42:21;;;;;;;1.00;0.87;;;11.80;99.90;;;;;;5110250;28;20638;-80
2022/11/16 10:44:54;;;;;;;1.07;0.87;;;11.80;99.90;;;;;;5110367;28;20971;-80
2022/11/16 10:47:27;;;;;;;0.77;0.77;;;11.70;99.90;;;;;;5109135;28;20628;-80
2022/11/16 10:49:58;;;;;;;1.27;1.17;;;11.70;99.90;;;;;;5110404;28;21157;-80
2022/11/16 10:52:26;;;;;;;0.80;0.80;;;11.60;99.90;;;;;;5110245;28;20698;-80
2022/11/16 10:54:53;;;;;;;0.60;0.50;;;11.60;99.90;;;;;;5109928;28;20659;-80
2022/11/16 10:57:22;;;;;;;0.60;0.33;;;11.60;99.90;;;;;;5109213;28;20658;-80
2022/11/16 10:59:54;;;;;;;0.97;0.87;;;11.70;99.90;;;;;;5097688;28;20625;-81
2022/11/16 11:02:34;;;;;;;0.73;0.73;;;11.70;99.90;;;;;;5089656;28;20689;-81
2022/11/16 11:05:04;;;;;;;0.80;0.57;;;11.80;99.90;;;;;;5089551;28;20624;-81
2022/11/16 11:07:32;;;;;;;0.80;0.70;;;11.90;99.90;;;;;;5088927;28;20635;-80
2022/11/16 11:09:59;;;;;;;0.80;0.80;;;11.90;99.90;;;;;;5089381;28;20639;-81
2022/11/16 11:12:39;;;;;;;0.63;0.40;;;11.90;99.90;;;;;;5088525;28;20727;-81
2022/11/16 11:15:22;;;;;;;0.63;0.63;;;12.00;99.90;;;;;;5089424;28;20621;-81
2022/11/16 11:18:09;;;;;;;1.13;1.03;;;12.20;99.90;;;;;;5103500;28;20612;-81
2022/11/16 11:20:37;;;;;;;0.70;0.70;;;12.40;99.90;;;;;;5108839;28;20651;-82
2022/11/16 11:23:12;;;;;;;1.60;0.53;;;12.50;99.90;;;;;;5109628;28;20624;-81
2022/11/16 11:25:41;;;;;;;0.47;0.40;;;12.80;99.90;;;;;;5109110;28;20737;-81
2022/11/16 11:28:18;;;;;;;0.60;0.57;;;12.80;99.90;;;;;;5108610;28;20615;-81
2022/11/16 11:30:53;;;;;;;1.27;0.77;;;12.80;99.90;;;;;;5109143;28;20607;-82
2022/11/16 11:33:22;;;;;;;0.70;0.50;;;13.00;99.90;;;;;;5108742;28;20746;-81
2022/11/16 11:35:58;;;;;;;0.53;0.50;;;13.00;99.90;;;;;;5109239;28;20618;-81
2022/11/16 11:38:26;;;;;;;0.80;0.50;;;13.10;99.90;;;;;;5107612;28;20722;-81
2022/11/16 11:40:59;;;;;;;1.70;0.67;;;13.30;99.90;;;;;;5109492;28;20630;-81
2022/11/16 11:43:27;;;;;;;0.70;0.50;;;13.30;99.90;;;;;;5108576;28;20783;-81
2022/11/16 11:45:59;;;;;;;0.40;0.33;;;13.50;99.90;;;;;;5108696;28;20634;-81
2022/11/16 11:48:36;;;;;;;0.50;0.50;;;13.50;99.90;;;;;;5108657;28;20615;-81
2022/11/16 11:51:10;;;;;;;0.30;0.20;;;13.50;99.90;;;;;;5108920;28;20702;-80
2022/11/16 11:53:46;;;;;;;0.50;0.40;;;13.40;99.30;;;;;;5109145;28;20662;-81
2022/11/16 11:56:15;;;;;;;0.70;0.40;;;13.30;99.30;;;;;;5108549;28;21022;-81
2022/11/16 11:58:43;;;;;;;0.60;0.40;;;13.20;97.40;;;;;;5106697;28;20638;-81
2022/11/16 12:01:37;;;;;;;3.50;0.60;;;13.30;97.70;;;;;;5088374;28;21212;-81
2022/11/16 12:04:41;;;;;;;0.67;0.50;;;13.40;99.50;;;;;;5087808;28;20647;-80
2022/11/16 12:07:17;;;;;;;0.40;0.30;;;13.30;98.60;;;;;;5087824;28;20617;-81
2022/11/16 12:09:51;;;;;;;0.30;0.20;;;13.20;97.40;;;;;;5088481;28;20619;-81
2022/11/16 12:12:33;;;;;;;0.40;0.20;;;13.10;97.70;;;;;;5088131;28;20656;-81
2022/11/16 12:15:18;;;;;;;3.20;0.80;;;13.00;96.10;;;;;;5088009;28;20615;-81
2022/11/16 12:17:54;;;;;;;0.40;0.20;;;12.90;96.00;;;;;;5102355;28;20730;-81
2022/11/16 12:20:38;;;;;;;0.40;0.40;;;12.90;96.60;;;;;;5107964;28;20626;-81
2022/11/16 12:23:21;;;;;;;0.40;0.20;;;12.80;96.60;;;;;;5107929;28;20624;-80
2022/11/16 12:25:55;;;;;;;0.30;0.20;;;12.60;97.20;;;;;;5108337;28;20763;-80
2022/11/16 12:28:37;;;;;;;0.50;0.30;;;12.50;97.70;;;;;;5107765;28;20616;-80
2022/11/16 12:31:33;;;;;;;1.13;0.30;;;12.50;97.80;;;;;;5108438;28;20619;-80
2022/11/16 12:34:10;;;;;;;0.50;0.30;;;12.30;96.60;;;;;;5108408;28;20663;-80
2022/11/16 12:36:45;;;;;;;0.50;0.27;;;12.20;97.70;;;;;;5107657;28;20604;-81
2022/11/16 12:39:23;;;;;;;0.60;0.30;;;12.20;97.30;;;;;;5108554;28;20742;-80
2022/11/16 12:42:32;;;;;;;0.47;0.47;;;12.20;97.70;;;;;;5107636;28;20611;-81
2022/11/16 12:45:17;;;;;;;0.60;0.60;;;12.20;97.50;;;;;;5108223;28;20615;-80
2022/11/16 12:48:01;;;;;;;0.60;0.50;;;12.20;97.30;;;;;;5107472;28;20727;-80
2022/11/16 12:50:42;;;;;;;0.40;0.30;;;12.10;97.10;;;;;;5111579;28;20648;-80
2022/11/16 12:53:33;;;;;;;0.30;0.20;;;12.20;97.00;;;;;;5112456;28;20754;-80
2022/11/16 12:56:08;;;;;;;0.30;0.30;;;12.10;97.10;;;;;;5112716;28;21110;-79
2022/11/16 12:58:49;;;;;;;0.30;0.20;;;12.20;95.20;;;;;;5109901;28;20614;-80
2022/11/16 13:01:22;;;;;;;0.30;0.10;;;12.30;95.50;;;;;;5092256;28;20630;-80
2022/11/16 13:03:53;;;;;;;1.00;0.30;;;12.30;96.40;;;;;;5092002;28;20711;-79
2022/11/16 13:06:25;;;;;;;0.30;0.30;;;12.30;96.30;;;;;;5091293;28;20616;-80
2022/11/16 13:09:01;;;;;;;1.20;0.70;;;12.30;96.30;;;;;;5091720;28;20956;-80
2022/11/16 13:11:32;;;;;;;0.40;0.40;;;12.30;97.50;;;;;;5091950;28;20624;-80
2022/11/16 13:14:04;;;;;;;0.40;0.30;;;12.30;96.40;;;;;;5090630;28;20713;-80
2022/11/16 13:16:31;;;;;;;0.30;0.20;;;12.30;97.30;;;;;;5094907;28;21198;-79
2022/11/16 13:18:59;;;;;;;1.00;0.93;;;12.30;96.90;;;;;;5111897;28;20973;-80
2022/11/16 13:21:35;;;;;;;0.67;0.40;;;12.40;97.30;;;;;;5111486;28;20603;-80
2022/11/16 13:24:20;;;;;;;0.30;0.20;;;12.40;96.60;;;;;;5111719;28;20611;-80
2022/11/16 13:26:53;;;;;;;1.23;0.90;;;12.40;96.30;;;;;;5111249;28;20630;-79
2022/11/16 13:29:29;;;;;;;0.40;0.30;;;12.30;95.70;;;;;;5111404;28;20678;-79
2022/11/16 13:32:02;;;;;;;0.60;0.37;;;12.30;95.10;;;;;;5111523;28;20623;-80
2022/11/16 13:34:32;;;;;;;0.30;0.20;;;12.20;95.10;;;;;;5111421;28;20757;-79
2022/11/16 13:36:59;;;;;;;0.40;0.30;;;12.20;95.60;;;;;;5111192;28;20619;-79
2022/11/16 13:39:55;;;;;;;0.30;0.20;;;12.10;94.70;;;;;;5111513;28;20722;-79
2022/11/16 13:42:25;;;;;;;1.23;0.57;;;12.10;95.40;;;;;;5110004;27;20642;-80
2022/11/16 13:44:52;;;;;;;0.30;0.30;;;12.10;95.70;;;;;;5111263;28;20631;-79
2022/11/16 13:47:22;;;;;;;1.43;1.43;;;12.10;95.70;;;;;;5110590;28;21309;-79
2022/11/16 13:49:51;;;;;;;0.43;0.30;;;12.20;97.60;;;;;;5111809;28;20611;-79
2022/11/16 13:52:18;;;;;;;0.57;0.57;;;12.20;96.90;;;;;;5111466;28;20621;-79
2022/11/16 13:54:48;;;;;;;0.33;0.33;;;12.20;96.50;;;;;;5111387;28;20659;-80
2022/11/16 13:57:26;;;;;;;0.40;0.30;;;12.30;95.70;;;;;;5110744;28;20630;-79
2022/11/16 14:00:07;;;;;;;0.40;0.30;;;12.30;95.60;;;;;;5099028;28;20731;-80